Time;durP1;ratioP1;P1;durP2;ratioP2;P2;SDS_P1;SDS_P2;PMS_P1;PMS_P2;Temp;Humidity;BMP_temperature;BMP_pressure;BME280_temperature;BME280_humidity;BME280_pressure;Samples;Min_cycle;Max_cycle;Signal;HPM_P1;HPM_P2
2022/03/20 00:00:14;;;;;;;23.23;12.70;;;;;;;-1.98;54.81;102478.34;5047779;28;20805;-20
2022/03/20 00:02:41;;;;;;;28.27;16.13;;;;;;;-2.11;55.48;102496.44;5049178;28;20036;-20
2022/03/20 00:05:08;;;;;;;26.45;15.57;;;;;;;-2.03;55.06;102481.22;5047218;28;20021;-20
2022/03/20 00:07:34;;;;;;;51.70;27.90;;;;;;;-2.43;56.21;102468.38;5048966;28;20029;-20
2022/03/20 00:10:05;;;;;;;81.10;41.20;;;;;;;-2.94;57.96;102477.78;5047495;28;20036;-21
2022/03/20 00:12:30;;;;;;;48.28;29.00;;;;;;;-2.80;57.48;102495.38;5047382;28;20029;-20
2022/03/20 00:14:56;;;;;;;37.88;22.85;;;;;;;-2.91;58.58;102490.66;5048340;28;20059;-20
2022/03/20 00:17:22;;;;;;;217.15;109.35;;;;;;;-2.62;57.04;102472.78;5049106;28;20101;-20
2022/03/20 00:19:48;;;;;;;31.38;17.05;;;;;;;-2.71;57.25;102483.69;5048747;28;20021;-20
2022/03/20 00:22:15;;;;;;;19.60;9.98;;;;;;;-2.96;57.67;102484.84;5047226;28;20036;-21
2022/03/20 00:24:42;;;;;;;19.20;10.07;;;;;;;-3.22;58.49;102472.13;5048694;28;20066;-21
2022/03/20 00:27:11;;;;;;;17.58;9.70;;;;;;;-3.52;60.48;102475.19;5046973;28;20704;-20
2022/03/20 00:29:36;;;;;;;20.55;10.82;;;;;;;-3.26;59.84;102469.66;5048627;28;20047;-20
2022/03/20 00:32:03;;;;;;;190.60;75.10;;;;;;;-2.78;58.08;102470.03;5048327;28;20037;-20
2022/03/20 00:34:28;;;;;;;433.13;173.95;;;;;;;-2.42;56.77;102470.03;5030682;28;20124;-21
2022/03/20 00:36:54;;;;;;;153.88;62.53;;;;;;;-2.48;57.10;102459.88;5047968;28;20025;-20
2022/03/20 00:39:20;;;;;;;38.08;17.30;;;;;;;-2.54;57.16;102454.13;5046812;28;20055;-21
2022/03/20 00:41:45;;;;;;;19.40;11.02;;;;;;;-2.59;57.56;102451.75;5048326;28;20412;-21
2022/03/20 00:44:11;;;;;;;23.10;12.15;;;;;;;-2.55;56.71;102432.38;5046942;28;20515;-21
2022/03/20 00:46:36;;;;;;;24.50;14.05;;;;;;;-2.50;57.66;102456.50;5048351;28;20421;-20
2022/03/20 00:49:02;;;;;;;23.88;13.70;;;;;;;-2.40;57.53;102451.69;5046652;28;20035;-20
2022/03/20 00:51:28;;;;;;;19.67;10.40;;;;;;;-2.24;56.72;102459.59;5048191;28;20029;-21
2022/03/20 00:53:54;;;;;;;26.30;12.43;;;;;;;-2.33;56.73;102449.59;5046479;28;20086;-21
2022/03/20 00:56:19;;;;;;;36.60;15.20;;;;;;;-2.54;56.98;102434.06;5046674;28;20041;-20
2022/03/20 00:58:46;;;;;;;25.00;12.73;;;;;;;-2.66;57.32;102464.22;5048059;28;20036;-20
2022/03/20 01:01:14;;;;;;;24.48;12.48;;;;;;;-2.35;56.78;102465.38;5047995;28;20082;-20
2022/03/20 01:03:41;;;;;;;33.05;15.75;;;;;;;-2.02;55.88;102462.84;5048133;28;20029;-21
2022/03/20 01:06:07;;;;;;;22.08;11.10;;;;;;;-2.93;57.28;102469.00;5047986;28;20094;-20
2022/03/20 01:08:34;;;;;;;18.23;10.35;;;;;;;-3.15;57.74;102445.66;5047778;28;20037;-20
2022/03/20 01:11:01;;;;;;;20.35;10.88;;;;;;;-3.78;60.20;102473.72;5047689;28;20056;-20
2022/03/20 01:13:26;;;;;;;22.83;10.50;;;;;;;-3.91;60.60;102479.47;5047959;28;20024;-21
2022/03/20 01:15:52;;;;;;;18.95;9.82;;;;;;;-3.83;60.91;102466.13;5047594;28;20123;-20
2022/03/20 01:18:19;;;;;;;18.13;10.05;;;;;;;-3.42;59.35;102467.81;5046545;28;20120;-21
2022/03/20 01:20:45;;;;;;;19.85;11.27;;;;;;;-3.21;58.82;102466.00;5048041;28;20507;-20
2022/03/20 01:23:11;;;;;;;23.70;11.90;;;;;;;-2.87;57.75;102463.50;5046118;28;20060;-21
2022/03/20 01:25:36;;;;;;;21.10;11.60;;;;;;;-3.35;58.57;102440.50;5046364;28;20033;-20
2022/03/20 01:28:02;;;;;;;22.30;11.63;;;;;;;-3.25;58.89;102454.84;5046375;28;20401;-20
2022/03/20 01:30:27;;;;;;;22.90;12.15;;;;;;;-3.66;60.23;102442.78;5046417;28;20029;-20
2022/03/20 01:32:53;;;;;;;22.02;11.52;;;;;;;-3.81;60.58;102438.22;5047515;28;20029;-20
2022/03/20 01:35:18;;;;;;;26.27;13.55;;;;;;;-3.78;61.71;102445.91;5047716;28;20036;-20
2022/03/20 01:37:44;;;;;;;25.10;12.32;;;;;;;-3.82;62.71;102454.78;5045807;28;20036;-20
2022/03/20 01:40:10;;;;;;;25.67;13.43;;;;;;;-3.67;62.65;102450.66;5047865;28;20036;-20
2022/03/20 01:42:38;;;;;;;22.00;12.18;;;;;;;-4.00;63.71;102446.00;5047750;28;20068;-21
2022/03/20 01:45:15;;;;;;;25.02;12.73;;;;;;;-4.10;63.53;102422.06;5046153;28;20029;-20
2022/03/20 01:47:40;;;;;;;28.52;13.40;;;;;;;-3.73;63.01;102446.53;5047489;28;20021;-21
2022/03/20 01:50:06;;;;;;;27.15;13.93;;;;;;;-3.64;63.00;102450.50;5049125;28;20033;-20
2022/03/20 01:52:33;;;;;;;87.45;42.47;;;;;;;-3.46;61.88;102420.13;5051550;28;20036;-21
2022/03/20 01:54:59;;;;;;;39.83;21.02;;;;;;;-3.20;60.36;102449.44;5051246;28;20032;-20
2022/03/20 01:57:26;;;;;;;27.58;15.40;;;;;;;-3.11;60.30;102443.75;5050154;28;20036;-20
2022/03/20 01:59:52;;;;;;;25.52;13.63;;;;;;;-3.01;59.59;102424.13;5051398;28;20029;-20
2022/03/20 02:02:18;;;;;;;25.60;13.30;;;;;;;-3.02;60.41;102438.13;5051757;28;20107;-20
2022/03/20 02:04:44;;;;;;;26.58;13.50;;;;;;;-3.09;59.42;102421.88;5051190;28;20118;-20
2022/03/20 02:07:10;;;;;;;24.75;12.13;;;;;;;-3.14;59.83;102444.75;5050091;28;20111;-20
2022/03/20 02:09:37;;;;;;;22.88;11.77;;;;;;;-3.14;60.22;102449.16;5049882;28;20036;-21
2022/03/20 02:12:03;;;;;;;21.13;11.35;;;;;;;-3.08;59.63;102427.97;5051377;28;20021;-21
2022/03/20 02:14:28;;;;;;;22.27;11.85;;;;;;;-3.07;59.68;102451.38;5050785;28;20186;-20
2022/03/20 02:16:55;;;;;;;27.95;13.32;;;;;;;-2.97;59.29;102428.28;5049799;28;20556;-20
2022/03/20 02:19:21;;;;;;;24.92;12.80;;;;;;;-2.72;59.21;102448.84;5050971;28;20123;-20
2022/03/20 02:21:49;;;;;;;42.95;19.50;;;;;;;-2.64;59.54;102446.72;5051010;28;20029;-21
2022/03/20 02:24:41;;;;;;;44.20;22.70;;;;;;;-2.68;59.05;102446.94;5049747;28;20032;-20
2022/03/20 02:27:22;;;;;;;27.42;14.85;;;;;;;-2.64;58.74;102419.75;5050773;28;20112;-20
2022/03/20 02:29:54;;;;;;;26.83;14.52;;;;;;;-2.35;57.79;102433.16;5049369;28;20036;-21
2022/03/20 02:32:27;;;;;;;32.00;16.42;;;;;;;-3.06;59.15;102420.91;5050842;28;20394;-21
2022/03/20 02:34:53;;;;;;;33.72;17.45;;;;;;;-3.05;60.13;102438.25;5050596;28;20028;-21
2022/03/20 02:37:21;;;;;;;27.80;14.15;;;;;;;-3.08;60.52;102443.63;5050921;28;20086;-20
2022/03/20 02:39:47;;;;;;;27.38;14.63;;;;;;;-2.93;60.35;102442.06;5049329;28;20059;-21
2022/03/20 02:42:14;;;;;;;35.28;17.48;;;;;;;-2.90;59.34;102442.78;5050706;28;20077;-21
2022/03/20 02:45:10;;;;;;;33.35;17.20;;;;;;;-2.71;59.59;102447.13;5050580;28;20025;-20
2022/03/20 02:47:38;;;;;;;28.15;16.48;;;;;;;-2.78;59.65;102409.13;5048450;28;20047;-21
2022/03/20 02:50:13;;;;;;;29.30;17.27;;;;;;;-2.87;60.53;102442.59;5050474;28;20163;-21
2022/03/20 02:53:01;;;;;;;29.25;14.30;;;;;;;-2.80;61.22;102444.94;5049199;28;20557;-20
2022/03/20 02:55:35;;;;;;;29.83;14.52;;;;;;;-2.62;60.17;102449.25;5050625;28;20382;-20
2022/03/20 02:58:03;;;;;;;25.60;13.48;;;;;;;-2.28;58.41;102442.38;5050712;28;20036;-20
2022/03/20 03:00:31;;;;;;;28.15;13.60;;;;;;;-2.11;58.15;102447.59;5049395;28;20029;-21
2022/03/20 03:02:59;;;;;;;30.48;14.70;;;;;;;-2.56;58.96;102429.84;5048663;28;20045;-20
2022/03/20 03:05:27;;;;;;;24.85;12.98;;;;;;;-2.28;57.78;102429.31;5050016;28;20033;-21
2022/03/20 03:10:57;;;;;;;23.65;12.93;;;;;;;-2.56;58.99;102441.13;5050051;28;20514;-20
2022/03/20 03:13:25;;;;;;;29.83;13.95;;;;;;;-2.80;59.50;102442.31;5048471;28;20040;-20
2022/03/20 03:15:55;;;;;;;30.67;13.83;;;;;;;-2.87;60.74;102447.81;5049974;28;20053;-20
2022/03/20 03:18:22;;;;;;;28.80;14.07;;;;;;;-2.79;59.45;102450.09;5050431;28;20341;-20
2022/03/20 03:20:48;;;;;;;23.95;12.23;;;;;;;-2.71;59.54;102452.34;5048336;28;20048;-20
2022/03/20 03:23:14;;;;;;;28.38;14.43;;;;;;;-2.46;58.40;102452.81;5049844;28;20067;-20
2022/03/20 03:25:40;;;;;;;24.63;12.98;;;;;;;-2.65;59.17;102441.59;5049831;28;20036;-21
2022/03/20 03:28:06;;;;;;;19.33;10.80;;;;;;;-2.91;60.16;102454.13;5049648;28;20533;-20
2022/03/20 03:30:32;;;;;;;20.75;11.30;;;;;;;-3.36;61.09;102444.91;5050265;28;20400;-20
2022/03/20 03:32:58;;;;;;;18.10;10.75;;;;;;;-3.38;61.88;102456.31;5049832;28;20040;-20
2022/03/20 03:35:41;;;;;;;24.20;11.05;;;;;;;-3.69;61.77;102442.06;5049494;28;20029;-21
2022/03/20 03:38:15;;;;;;;24.30;11.35;;;;;;;-3.72;62.55;102455.22;5048370;28;20033;-20
2022/03/20 03:40:43;;;;;;;27.05;14.57;;;;;;;-3.11;60.36;102454.22;5047941;28;20029;-21
2022/03/20 03:43:09;;;;;;;29.45;18.00;;;;;;;-2.92;59.50;102452.44;5048184;28;20473;-20
2022/03/20 03:45:35;;;;;;;21.92;11.95;;;;;;;-3.24;60.53;102444.34;5049418;28;20032;-20
2022/03/20 03:48:01;;;;;;;21.33;11.98;;;;;;;-3.09;60.77;102457.59;5049410;28;20029;-20
2022/03/20 03:50:28;;;;;;;20.35;10.98;;;;;;;-3.22;60.67;102456.47;5049371;28;20032;-20
2022/03/20 03:52:53;;;;;;;18.67;10.20;;;;;;;-3.33;61.30;102465.66;5049576;28;20412;-20
2022/03/20 03:55:19;;;;;;;20.45;10.63;;;;;;;-3.46;61.50;102474.94;5047740;28;20108;-20
2022/03/20 03:57:46;;;;;;;20.98;11.18;;;;;;;-3.37;61.29;102432.78;5047919;28;20044;-20
2022/03/20 04:00:14;;;;;;;17.65;9.65;;;;;;;-3.31;60.87;102458.59;5048025;28;20183;-20
2022/03/20 04:02:39;;;;;;;17.80;10.38;;;;;;;-3.55;61.83;102459.69;5049015;28;20044;-21
2022/03/20 04:05:05;;;;;;;20.15;10.77;;;;;;;-3.76;62.42;102446.69;5048880;28;20029;-21
2022/03/20 04:07:31;;;;;;;21.63;11.02;;;;;;;-3.83;63.01;102460.91;5049059;28;20105;-20
2022/03/20 04:09:57;;;;;;;23.95;10.75;;;;;;;-3.67;62.59;102455.88;5048969;28;20036;-20
2022/03/20 04:12:22;;;;;;;21.08;10.70;;;;;;;-3.86;63.33;102461.03;5047781;28;20408;-21
2022/03/20 04:14:48;;;;;;;19.40;11.18;;;;;;;-4.09;63.95;102460.25;5048599;28;20433;-20
2022/03/20 04:17:14;;;;;;;22.40;11.18;;;;;;;-4.05;63.89;102460.97;5049121;28;20115;-20
2022/03/20 04:19:40;;;;;;;22.73;11.60;;;;;;;-4.41;64.64;102432.94;5047341;28;20266;-20
2022/03/20 04:22:05;;;;;;;24.27;11.70;;;;;;;-4.15;64.80;102470.09;5047498;28;20117;-20
2022/03/20 04:24:31;;;;;;;19.75;11.80;;;;;;;-4.09;64.87;102449.81;5048638;28;20256;-20
2022/03/20 04:26:58;;;;;;;21.33;10.65;;;;;;;-3.56;63.43;102469.25;5047123;28;20025;-20
2022/03/20 04:29:27;;;;;;;22.73;12.13;;;;;;;-3.95;64.05;102453.59;5047101;28;20036;-20
2022/03/20 04:31:54;;;;;;;;;;;;;;;-3.69;63.29;102475.94;5049040;28;20036;-20
2022/03/20 04:34:20;;;;;;;21.00;11.82;;;;;;;-3.74;63.82;102476.16;5047030;28;20649;-20
2022/03/20 04:36:46;;;;;;;99.60;38.55;;;;;;;-3.66;62.77;102474.06;5046926;28;20029;-20
2022/03/20 04:39:11;;;;;;;146.25;83.13;;;;;;;-4.03;63.59;102448.72;5046853;28;20040;-21
2022/03/20 04:41:37;;;;;;;29.27;17.30;;;;;;;-3.82;63.34;102457.41;5046991;28;20028;-20
2022/03/20 04:44:02;;;;;;;21.50;12.52;;;;;;;-3.28;61.82;102455.81;5047159;28;20033;-20
2022/03/20 04:46:28;;;;;;;25.80;15.18;;;;;;;-2.96;60.41;102469.16;5048309;28;20032;-20
2022/03/20 04:59:50;;;;;;;29.95;16.52;;;;;;;-3.37;62.38;102464.09;5048190;28;20035;-20
2022/03/20 05:02:15;;;;;;;26.00;14.30;;;;;;;-3.18;62.39;102484.97;5046911;28;20033;-21
2022/03/20 05:04:41;;;;;;;27.38;14.45;;;;;;;-2.92;61.49;102491.59;5048016;28;20469;-20
2022/03/20 05:07:07;;;;;;;28.13;16.58;;;;;;;-2.85;61.51;102487.78;5048028;28;20156;-20
2022/03/20 05:15:05;;;;;;;;;;;;;;;-2.13;59.52;102496.50;5046924;28;20067;-20
2022/03/20 05:17:31;;;;;;;36.05;17.75;;;;;;;-1.98;59.47;102502.75;5048109;28;19921;-20
2022/03/20 05:19:56;;;;;;;24.17;12.68;;;;;;;-1.84;59.56;102497.66;5046377;28;20036;-21
2022/03/20 05:22:22;;;;;;;51.45;23.90;;;;;;;-1.54;58.04;102504.00;5048084;28;20033;-21
2022/03/20 05:24:47;;;;;;;87.20;36.67;;;;;;;-1.91;59.60;102513.75;5046811;28;20040;-20
2022/03/20 05:27:13;;;;;;;56.90;28.08;;;;;;;-2.08;59.95;102504.97;5048119;28;20029;-21
2022/03/20 05:29:40;;;;;;;24.02;12.35;;;;;;;-2.02;60.41;102509.91;5046564;28;20485;-20
2022/03/20 05:32:07;;;;;;;20.25;11.73;;;;;;;-2.23;61.31;102505.72;5048018;28;20269;-20
2022/03/20 05:34:34;;;;;;;19.17;11.38;;;;;;;-2.00;60.42;102506.34;5048001;28;20106;-20
2022/03/20 05:37:00;;;;;;;24.65;14.88;;;;;;;-1.93;59.87;102513.81;5047463;28;20094;-20
2022/03/20 05:39:26;;;;;;;26.88;14.70;;;;;;;-1.64;59.46;102504.47;5046303;28;20480;-20
2022/03/20 05:41:51;;;;;;;25.10;13.75;;;;;;;-1.54;60.05;102489.16;5046386;28;20021;-21
2022/03/20 05:44:21;;;;;;;25.10;14.93;;;;;;;-1.56;59.69;102484.91;5047835;28;20026;-20
2022/03/20 05:46:51;;;;;;;24.85;14.35;;;;;;;-1.30;58.99;102492.25;5047288;28;20512;-21
2022/03/20 05:49:22;;;;;;;21.25;11.55;;;;;;;-1.36;58.24;102510.06;5046295;28;20500;-20
2022/03/20 05:51:49;;;;;;;30.45;14.05;;;;;;;-1.39;59.27;102492.72;5047315;28;20113;-21
2022/03/20 05:54:16;;;;;;;29.13;14.68;;;;;;;-1.22;58.66;102500.53;5046210;28;20032;-21
2022/03/20 05:59:27;;;;;;;20.58;11.98;;;;;;;-1.32;59.46;102507.19;5047433;28;20063;-21
2022/03/20 06:01:52;;;;;;;26.17;12.98;;;;;;;-1.12;58.58;102507.91;5045895;28;20041;-21
2022/03/20 06:04:19;;;;;;;19.92;12.13;;;;;;;-0.94;59.46;102506.91;5047412;28;20508;-21
2022/03/20 06:06:45;;;;;;;20.13;11.88;;;;;;;-1.00;57.73;102488.91;5047187;28;20033;-20
2022/03/20 06:09:10;;;;;;;20.50;13.38;;;;;;;-0.96;57.47;102489.56;5047244;28;20729;-21
2022/03/20 06:11:36;;;;;;;23.20;12.93;;;;;;;-1.14;58.02;102507.97;5047891;28;20028;-21
2022/03/20 06:14:03;;;;;;;19.55;10.70;;;;;;;-1.57;59.29;102504.16;5045993;28;20052;-20
2022/03/20 06:16:29;;;;;;;19.30;12.32;;;;;;;-1.56;59.98;102495.38;5045610;28;20053;-21
2022/03/20 06:18:55;;;;;;;29.80;14.77;;;;;;;-1.33;59.40;102497.63;5046807;28;20507;-20
2022/03/20 06:21:22;;;;;;;34.30;14.13;;;;;;;-1.21;59.00;102480.44;5046033;28;20037;-20
2022/03/20 06:23:48;;;;;;;23.77;12.23;;;;;;;-0.86;59.04;102491.63;5047135;28;20017;-21
2022/03/20 06:26:14;;;;;;;23.70;13.27;;;;;;;-0.76;58.04;102501.56;5046032;28;20420;-21
2022/03/20 06:28:40;;;;;;;18.75;11.48;;;;;;;-0.41;57.01;102516.19;5047394;28;20031;-21
2022/03/20 06:31:16;;;;;;;20.70;11.88;;;;;;;-0.16;57.30;102522.63;5047050;28;20029;-20
2022/03/20 06:33:43;;;;;;;19.98;11.02;;;;;;;0.04;56.57;102518.00;5045350;28;20048;-20
2022/03/20 06:36:09;;;;;;;21.70;11.23;;;;;;;0.17;55.11;102518.97;5047136;28;20502;-20
2022/03/20 06:38:35;;;;;;;21.10;11.13;;;;;;;0.28;55.51;102494.72;5049505;28;20021;-20
2022/03/20 06:41:02;;;;;;;23.58;11.48;;;;;;;0.16;55.73;102512.91;5050826;28;20032;-20
2022/03/20 06:43:28;;;;;;;20.95;11.05;;;;;;;0.38;54.67;102501.94;5050650;28;20036;-20
2022/03/20 06:45:57;;;;;;;19.70;10.45;;;;;;;0.07;54.49;102500.31;5050467;28;20029;-22
2022/03/20 06:48:24;;;;;;;18.48;10.35;;;;;;;-0.01;55.28;102489.41;5049193;28;20123;-21
2022/03/20 06:50:49;;;;;;;21.25;12.20;;;;;;;0.18;56.23;102497.03;5050363;28;20025;-21
2022/03/20 06:53:15;;;;;;;20.95;10.45;;;;;;;0.29;56.05;102499.88;5050546;28;20029;-21
2022/03/20 06:55:41;;;;;;;21.85;11.68;;;;;;;0.65;56.67;102503.81;5050540;28;20029;-21
2022/03/20 06:58:06;;;;;;;21.15;12.00;;;;;;;0.93;55.32;102473.22;5050481;28;20056;-20
2022/03/20 07:00:32;;;;;;;18.83;10.57;;;;;;;1.16;54.40;102493.63;5050249;28;20481;-21
2022/03/20 07:03:03;;;;;;;20.13;11.95;;;;;;;1.04;55.41;102483.06;5050008;28;20037;-20
2022/03/20 07:05:29;;;;;;;19.83;12.60;;;;;;;1.14;54.61;102498.13;5050501;28;20102;-20
2022/03/20 07:07:55;;;;;;;21.52;11.40;;;;;;;1.29;54.59;102482.31;5050196;28;20040;-21
2022/03/20 07:10:22;;;;;;;25.23;12.77;;;;;;;1.50;56.05;102504.63;5050285;28;20021;-21
2022/03/20 07:12:50;;;;;;;20.10;12.65;;;;;;;1.13;54.54;102477.22;5049651;28;20717;-20
2022/03/20 07:15:17;;;;;;;19.08;10.63;;;;;;;1.16;54.64;102498.88;5048633;28;20111;-21
2022/03/20 07:17:45;;;;;;;12.20;6.75;;;;;;;1.45;53.49;102488.31;5048897;28;20035;-20
2022/03/20 07:20:11;;;;;;;14.77;9.30;;;;;;;1.75;52.68;102474.06;5049061;28;20037;-20
2022/03/20 07:22:37;;;;;;;12.50;8.02;;;;;;;1.67;50.99;102476.38;5049091;28;20405;-21
2022/03/20 07:30:34;;;;;;;16.35;8.30;;;;;;;2.06;50.13;102488.63;5049990;28;20208;-20
2022/03/20 07:32:59;;;;;;;13.20;7.55;;;;;;;1.99;47.34;102464.53;5049892;28;20568;-20
2022/03/20 07:35:25;;;;;;;15.48;7.10;;;;;;;2.16;47.70;102470.44;5049767;28;20119;-21
2022/03/20 07:37:52;;;;;;;13.18;8.52;;;;;;;2.53;47.32;102462.63;5049621;28;20091;-20
2022/03/20 07:40:17;;;;;;;13.25;8.43;;;;;;;2.49;47.25;102464.63;5049366;28;20033;-20
2022/03/20 07:42:43;;;;;;;13.93;7.90;;;;;;;2.70;47.60;102480.75;5031535;28;20032;-19
2022/03/20 07:45:09;;;;;;;15.02;7.40;;;;;;;2.93;45.17;102492.28;5047979;28;20032;-19
2022/03/20 07:47:35;;;;;;;13.77;8.38;;;;;;;2.97;45.75;102487.66;5049220;28;20028;-20
2022/03/20 07:50:00;;;;;;;14.20;7.88;;;;;;;3.14;46.18;102492.53;5047892;28;20554;-20
2022/03/20 07:52:27;;;;;;;14.43;9.25;;;;;;;3.49;45.57;102470.66;5047782;28;20029;-20
2022/03/20 07:54:52;;;;;;;12.88;6.97;;;;;;;3.69;42.72;102484.19;5048742;28;20124;-20
2022/03/20 07:57:18;;;;;;;15.02;7.60;;;;;;;3.67;44.35;102459.72;5048202;28;20112;-20
2022/03/20 07:59:44;;;;;;;17.17;8.48;;;;;;;3.78;44.44;102454.44;5047792;28;20056;-20
2022/03/20 08:02:10;;;;;;;12.90;7.93;;;;;;;3.92;45.64;102435.75;5049248;28;20040;-20
2022/03/20 08:04:36;;;;;;;9.35;5.88;;;;;;;3.89;42.10;102459.78;5049122;28;20028;-21
2022/03/20 08:07:03;;;;;;;10.05;5.93;;;;;;;3.75;41.53;102459.97;5047130;28;20032;-20
2022/03/20 08:09:29;;;;;;;8.60;5.28;;;;;;;3.79;39.09;102450.88;5047549;28;20051;-20
2022/03/20 08:11:58;;;;;;;16.50;8.90;;;;;;;4.06;39.44;102447.09;5048978;28;20496;-19
2022/03/20 08:14:23;;;;;;;11.05;6.32;;;;;;;4.28;38.44;102425.97;5048814;28;20060;-20
2022/03/20 08:16:50;;;;;;;12.20;6.90;;;;;;;4.35;38.22;102453.63;5048650;28;20787;-21
2022/03/20 08:19:17;;;;;;;12.63;7.05;;;;;;;4.62;39.23;102441.84;5049270;28;20040;-20
2022/03/20 08:21:43;;;;;;;10.18;6.03;;;;;;;4.95;37.84;102440.94;5048656;28;20037;-20
2022/03/20 08:24:09;;;;;;;10.27;6.20;;;;;;;4.89;37.10;102430.88;5048563;28;20024;-20
2022/03/20 08:26:35;;;;;;;9.65;5.75;;;;;;;4.79;37.27;102406.97;5048576;28;20074;-21
2022/03/20 08:29:01;;;;;;;28.20;13.75;;;;;;;5.05;39.23;102427.81;5047081;28;20029;-21
2022/03/20 08:31:28;;;;;;;13.60;7.07;;;;;;;5.32;36.64;102427.38;5047297;28;20750;-20
2022/03/20 08:33:54;;;;;;;9.57;5.72;;;;;;;5.74;33.42;102426.56;5048448;28;20044;-21
2022/03/20 08:36:20;;;;;;;13.82;7.63;;;;;;;5.73;35.41;102414.31;5047022;28;20032;-20
2022/03/20 08:38:46;;;;;;;14.70;7.32;;;;;;;5.52;33.52;102387.84;5048510;28;20413;-20
2022/03/20 08:41:12;;;;;;;9.32;4.90;;;;;;;5.29;33.89;102400.31;5048607;28;20116;-20
2022/03/20 08:43:38;;;;;;;9.25;5.15;;;;;;;5.16;34.30;102361.66;5048480;28;20112;-20
2022/03/20 08:46:03;;;;;;;7.95;4.22;;;;;;;5.63;34.26;102396.53;5048482;28;20476;-20
2022/03/20 08:48:29;;;;;;;9.60;5.35;;;;;;;5.63;33.81;102378.00;5048338;28;20414;-20
2022/03/20 08:50:54;;;;;;;8.15;5.00;;;;;;;5.52;35.21;102383.38;5046772;28;20078;-20
2022/03/20 08:53:20;;;;;;;14.65;8.90;;;;;;;6.36;33.72;102390.41;5046917;28;20499;-20
2022/03/20 08:55:47;;;;;;;8.80;4.78;;;;;;;6.46;32.12;102391.28;5030411;28;20443;-20
2022/03/20 08:58:13;;;;;;;10.50;5.28;;;;;;;6.53;30.85;102386.25;5047777;28;20110;-21
2022/03/20 09:00:39;;;;;;;9.15;5.32;;;;;;;6.43;32.48;102391.53;5046697;28;20063;-20
2022/03/20 09:03:06;;;;;;;9.60;5.35;;;;;;;6.60;31.43;102392.72;5048700;28;20040;-20
2022/03/20 09:05:32;;;;;;;43.50;23.70;;;;;;;6.91;32.18;102369.59;5046193;28;20025;-20
2022/03/20 09:07:58;;;;;;;28.52;15.27;;;;;;;7.52;31.35;102375.56;5048048;28;20040;-20
2022/03/20 09:10:25;;;;;;;18.13;10.25;;;;;;;8.16;28.97;102379.34;5048040;28;20025;-20
2022/03/20 09:12:55;;;;;;;10.88;6.35;;;;;;;7.64;30.89;102362.03;5046344;28;20032;-20
2022/03/20 09:15:22;;;;;;;15.88;9.18;;;;;;;7.89;31.36;102380.97;5046590;28;20084;-20
2022/03/20 09:20:35;;;;;;;11.93;5.45;;;;;;;8.26;30.56;102372.16;5046585;28;20041;-20
2022/03/20 09:23:01;;;;;;;27.30;18.73;;;;;;;8.11;29.52;102369.16;5046455;28;20029;-20
2022/03/20 09:25:26;;;;;;;117.85;71.63;;;;;;;8.04;28.77;102358.25;5047623;28;20624;-21
2022/03/20 09:27:52;;;;;;;10.30;5.90;;;;;;;8.40;29.90;102363.69;5046043;28;20543;-20
2022/03/20 09:30:21;;;;;;;10.52;5.25;;;;;;;8.17;28.61;102360.59;5047672;28;20068;-21
2022/03/20 09:32:48;;;;;;;47.60;25.30;;;;;;;7.79;30.17;102350.94;5047268;28;20036;-20
2022/03/20 09:35:14;;;;;;;22.77;10.82;;;;;;;8.41;29.42;102360.06;5047712;28;20056;-21
2022/03/20 09:37:40;;;;;;;10.77;5.68;;;;;;;8.53;27.47;102354.56;5047551;28;20131;-20
2022/03/20 09:40:06;;;;;;;31.10;14.32;;;;;;;8.18;29.00;102333.00;5047922;28;20040;-20
2022/03/20 09:42:32;;;;;;;14.05;8.07;;;;;;;8.10;29.85;102334.75;5047690;28;20065;-20
2022/03/20 09:44:57;;;;;;;10.07;4.85;;;;;;;8.26;29.00;102340.25;5047693;28;20060;-20
2022/03/20 09:47:25;;;;;;;11.52;5.18;;;;;;;8.27;29.19;102336.59;5045704;28;20037;-20
2022/03/20 09:49:52;;;;;;;;;;;;;;;8.17;29.22;102342.00;5046579;28;20087;-21
2022/03/20 09:52:19;;;;;;;8.73;5.55;;;;;;;8.27;28.95;102328.63;5047322;28;19919;-20
2022/03/20 09:54:46;;;;;;;10.77;5.40;;;;;;;9.02;29.01;102331.09;5047967;28;20032;-20
2022/03/20 09:57:11;;;;;;;12.50;6.95;;;;;;;9.57;28.41;102328.19;5046014;28;20115;-22
2022/03/20 09:59:40;;;;;;;18.48;9.90;;;;;;;9.57;27.30;102314.88;5047168;28;20115;-22
2022/03/20 10:02:08;;;;;;;8.07;4.47;;;;;;;8.71;28.51;102328.81;5045736;28;20497;-22
2022/03/20 10:05:00;;;;;;;8.68;4.45;;;;;;;8.19;26.45;102329.41;5045981;28;20029;-22
2022/03/20 10:07:30;;;;;;;32.03;14.32;;;;;;;8.73;32.13;102310.06;5047254;28;20086;-22
2022/03/20 10:10:06;;;;;;;8.38;4.75;;;;;;;9.42;26.74;102308.47;5048085;28;20029;-22
2022/03/20 10:12:33;;;;;;;8.95;4.68;;;;;;;8.45;27.69;102324.22;5050807;28;20852;-22
2022/03/20 10:14:59;;;;;;;8.13;4.40;;;;;;;9.75;27.75;102329.97;5050865;28;20503;-22
2022/03/20 10:17:25;;;;;;;7.70;4.15;;;;;;;9.69;26.42;102323.44;5050898;28;20741;-22
2022/03/20 10:19:50;;;;;;;18.42;10.57;;;;;;;9.86;28.19;102297.72;5032860;28;20056;-21
2022/03/20 10:22:17;;;;;;;17.65;12.25;;;;;;;9.92;29.38;102313.06;5051063;28;20029;-22
2022/03/20 10:24:51;;;;;;;7.05;4.38;;;;;;;10.75;23.89;102323.03;5049185;28;20033;-22
2022/03/20 10:27:17;;;;;;;9.93;5.80;;;;;;;11.63;28.35;102303.63;5051007;28;20025;-22
2022/03/20 10:29:54;;;;;;;9.48;4.78;;;;;;;11.60;25.92;102301.28;5050710;28;20074;-21
2022/03/20 10:32:20;;;;;;;27.02;17.05;;;;;;;11.38;24.41;102299.31;5050193;28;20390;-22
2022/03/20 10:34:50;;;;;;;10.50;6.35;;;;;;;11.31;24.05;102299.16;5049853;28;20044;-23
2022/03/20 10:37:18;;;;;;;9.75;4.95;;;;;;;11.71;23.45;102301.91;5050067;28;20030;-22
2022/03/20 10:39:44;;;;;;;8.63;4.43;;;;;;;11.52;22.28;102285.25;5049392;28;20522;-22
2022/03/20 10:42:14;;;;;;;6.35;3.70;;;;;;;11.00;24.44;102275.00;5049749;28;20063;-22
2022/03/20 10:44:40;;;;;;;8.15;4.70;;;;;;;9.74;26.81;102277.66;5050051;28;20029;-22
2022/03/20 10:47:13;;;;;;;10.48;4.70;;;;;;;9.92;25.36;102290.91;5049443;28;20037;-22
2022/03/20 10:49:41;;;;;;;7.88;4.70;;;;;;;9.76;24.71;102275.69;5048488;28;20037;-22
2022/03/20 10:52:10;;;;;;;9.43;3.97;;;;;;;9.89;26.13;102289.41;5041505;28;20887;-22
2022/03/20 10:54:41;;;;;;;7.25;4.10;;;;;;;9.78;27.29;102271.84;5028037;28;20037;-22
2022/03/20 10:57:08;;;;;;;24.25;21.67;;;;;;;10.71;24.61;102287.00;5035406;28;20424;-22
2022/03/20 10:59:34;;;;;;;9.63;5.57;;;;;;;11.25;23.62;102268.63;5040897;28;20065;-24
2022/03/20 11:02:05;;;;;;;10.68;6.47;;;;;;;11.64;24.58;102277.72;5028291;28;20025;-21
2022/03/20 11:04:32;;;;;;;8.38;4.75;;;;;;;12.33;22.96;102277.13;5027962;28;20041;-22
2022/03/20 11:07:00;;;;;;;7.78;4.40;;;;;;;11.66;23.03;102260.50;5028215;28;20516;-22
2022/03/20 11:09:26;;;;;;;;;;;;;;;12.33;22.75;102267.25;5027237;28;20770;-22
2022/03/20 11:11:55;;;;;;;9.25;5.30;;;;;;;11.14;24.29;102265.50;5045612;28;20563;-22
2022/03/20 11:14:21;;;;;;;;;;;;;;;10.31;23.23;102259.25;5048889;28;20141;-23
2022/03/20 11:16:51;;;;;;;7.63;4.43;;;;;;;11.09;23.67;102244.59;5045874;28;20310;-23
2022/03/20 11:19:23;;;;;;;11.07;6.00;;;;;;;11.78;24.31;102246.78;5046331;28;20037;-23
2022/03/20 11:21:53;;;;;;;9.25;4.68;;;;;;;11.63;24.73;102242.16;5047803;28;20025;-22
2022/03/20 11:24:19;;;;;;;8.45;4.45;;;;;;;11.14;24.13;102239.59;5048257;28;20024;-22
2022/03/20 11:26:49;;;;;;;6.97;4.70;;;;;;;11.35;26.11;102246.25;5032674;28;20083;-22
2022/03/20 11:29:15;;;;;;;7.63;4.82;;;;;;;11.32;23.49;102238.56;5028866;28;20083;-23
2022/03/20 11:34:00;;;;;;;139.90;51.05;;;;;;;10.56;25.26;102236.13;5165853;27;20405;-38
2022/03/20 11:36:25;;;;;;;67.72;32.00;;;;;;;11.50;25.42;102217.81;5165709;27;20070;-31
2022/03/20 11:39:11;;;;;;;35.05;18.48;;;;;;;11.96;22.88;102234.03;5166603;27;20114;-38
2022/03/20 11:41:37;;;;;;;14.73;7.88;;;;;;;11.86;22.92;102217.34;5147638;27;20034;-32
2022/03/20 11:44:22;;;;;;;6.18;3.72;;;;;;;12.15;21.99;102211.34;5147083;27;20064;-30
2022/03/20 11:47:29;;;;;;;14.50;6.65;;;;;;;13.05;21.23;102212.47;5147105;27;20033;-31
2022/03/20 11:50:07;;;;;;;8.73;4.20;;;;;;;13.18;22.92;102201.97;5147325;27;20026;-31